createdAt,value
2018-03-24T00:00:08.816Z,15.07
2018-03-24T00:02:36.364Z,16.57
2018-03-24T00:05:03.902Z,16.03
2018-03-24T00:07:31.457Z,16.00
2018-03-24T00:09:58.996Z,15.37
2018-03-24T00:12:27.316Z,14.43
2018-03-24T00:14:54.848Z,15.53
2018-03-24T00:17:22.405Z,15.47
2018-03-24T00:19:49.930Z,14.27
2018-03-24T00:22:18.255Z,13.57
2018-03-24T00:24:45.784Z,14.50
2018-03-24T00:27:14.156Z,16.30
2018-03-24T00:29:42.457Z,15.40
2018-03-24T00:32:10.925Z,15.70
2018-03-24T00:34:38.466Z,16.23
2018-03-24T00:37:06.777Z,17.00
2018-03-24T00:39:34.320Z,16.73
2018-03-24T00:42:01.893Z,15.33
2018-03-24T00:44:29.427Z,14.90
2018-03-24T00:46:57.751Z,15.00
2018-03-24T00:49:25.283Z,14.70
2018-03-24T00:51:52.835Z,15.83
2018-03-24T00:54:20.399Z,17.63
2018-03-24T00:56:47.960Z,16.67
2018-03-24T00:59:15.510Z,15.83
2018-03-24T01:01:43.057Z,14.80
2018-03-24T01:04:11.352Z,15.70
2018-03-24T01:06:38.916Z,14.80
2018-03-24T01:09:06.462Z,15.10
2018-03-24T01:11:34.021Z,15.43
2018-03-24T01:14:01.554Z,14.00
2018-03-24T01:16:29.874Z,16.07
2018-03-24T01:18:57.409Z,14.30
2018-03-24T01:21:25.027Z,15.10
2018-03-24T01:23:52.573Z,15.70
2018-03-24T01:26:20.121Z,14.20
2018-03-24T01:28:47.675Z,16.10
2018-03-24T01:31:15.208Z,15.23
2018-03-24T01:33:42.765Z,15.77
2018-03-24T01:36:10.303Z,15.93
2018-03-24T01:38:38.619Z,14.53
2018-03-24T01:41:06.168Z,15.63
2018-03-24T01:43:33.733Z,15.57
2018-03-24T01:46:01.275Z,16.27
2018-03-24T01:48:28.834Z,15.53
2018-03-24T01:50:56.369Z,16.97
2018-03-24T01:53:36.451Z,18.10
2018-03-24T01:56:03.986Z,17.50
2018-03-24T01:58:32.302Z,17.23
2018-03-24T02:00:59.846Z,19.10
2018-03-24T02:03:27.402Z,17.50
2018-03-24T02:05:55.112Z,18.37
2018-03-24T02:08:22.672Z,18.80
2018-03-24T02:10:50.199Z,19.83
2018-03-24T02:13:17.771Z,19.83
2018-03-24T02:15:45.308Z,19.30
2018-03-24T02:18:12.857Z,20.53
2018-03-24T02:20:40.384Z,20.83
2018-03-24T02:23:08.696Z,20.30
2018-03-24T02:25:36.229Z,20.23
2018-03-24T02:28:04.545Z,20.83
2018-03-24T02:30:32.083Z,20.53
2018-03-24T02:32:59.637Z,19.97
2018-03-24T02:35:27.176Z,19.27
2018-03-24T02:37:55.498Z,18.77
2018-03-24T02:40:23.068Z,22.43
2018-03-24T02:42:50.664Z,20.73
2018-03-24T02:45:18.964Z,21.70
2018-03-24T02:47:46.501Z,23.37
2018-03-24T02:50:14.809Z,20.77
2018-03-24T02:52:42.351Z,20.77
2018-03-24T02:55:09.918Z,21.57
2018-03-24T02:57:37.452Z,22.20
2018-03-24T03:00:05.797Z,21.13
2018-03-24T03:02:33.346Z,20.60
2018-03-24T03:05:00.897Z,21.00
2018-03-24T03:07:28.427Z,19.93
2018-03-24T03:09:55.981Z,21.07
2018-03-24T03:12:23.509Z,21.17
2018-03-24T03:14:51.057Z,20.07
2018-03-24T03:17:18.605Z,20.90
2018-03-24T03:19:46.169Z,22.87
2018-03-24T03:22:13.713Z,21.17
2018-03-24T03:24:41.272Z,22.30
2018-03-24T03:27:08.843Z,22.53
2018-03-24T03:29:36.375Z,24.10
2018-03-24T03:32:04.756Z,20.77
2018-03-24T03:34:32.297Z,22.37
2018-03-24T03:36:59.833Z,21.33
2018-03-24T03:39:28.137Z,20.53
2018-03-24T03:41:55.693Z,20.13
2018-03-24T03:44:23.226Z,21.63
2018-03-24T03:46:51.546Z,24.57
2018-03-24T03:49:19.077Z,23.53
2018-03-24T03:51:46.632Z,25.73
2018-03-24T03:54:14.161Z,25.77
2018-03-24T03:56:41.717Z,26.10
2018-03-24T03:59:09.254Z,24.57
2018-03-24T04:01:36.818Z,24.97
2018-03-24T04:04:04.377Z,27.10
2018-03-24T04:06:31.929Z,25.20
2018-03-24T04:08:59.466Z,26.70
2018-03-24T04:11:27.030Z,25.93
2018-03-24T04:13:54.574Z,27.07
2018-03-24T04:16:22.125Z,27.07
2018-03-24T04:18:49.679Z,26.43
2018-03-24T04:21:17.224Z,25.33
2018-03-24T04:23:45.516Z,26.37
2018-03-24T04:26:13.048Z,25.33
2018-03-24T04:28:40.597Z,27.30
2018-03-24T04:31:08.143Z,27.13
2018-03-24T04:33:35.694Z,29.17
2018-03-24T04:36:03.237Z,30.63
2018-03-24T04:38:30.801Z,30.63
2018-03-24T04:40:58.338Z,31.77
2018-03-24T04:43:25.906Z,31.43
2018-03-24T04:45:53.445Z,30.67
2018-03-24T04:48:21.003Z,31.77
2018-03-24T04:50:48.546Z,32.67
2018-03-24T04:53:16.861Z,31.97
2018-03-24T04:55:44.409Z,30.67
2018-03-24T04:58:11.958Z,31.40
2018-03-24T05:00:39.504Z,32.93
2018-03-24T05:03:07.063Z,34.30
2018-03-24T05:05:34.604Z,36.87
2018-03-24T05:08:02.934Z,32.53
2018-03-24T05:10:30.473Z,33.27
2018-03-24T05:12:58.023Z,35.90
2018-03-24T05:15:25.556Z,36.27
2018-03-24T05:17:53.874Z,36.63
2018-03-24T05:20:21.417Z,37.23
2018-03-24T05:22:48.977Z,38.17
2018-03-24T05:25:16.515Z,36.97
2018-03-24T05:27:44.841Z,38.17
2018-03-24T05:30:12.377Z,35.73
2018-03-24T05:32:39.909Z,34.97
2018-03-24T05:35:08.234Z,39.90
2018-03-24T05:37:35.795Z,41.70
2018-03-24T05:40:03.353Z,41.03
2018-03-24T05:42:30.897Z,41.80
2018-03-24T05:44:58.465Z,43.10
2018-03-24T05:47:26.004Z,49.17
2018-03-24T05:49:53.571Z,48.50
2018-03-24T05:52:21.946Z,45.70
2018-03-24T05:54:49.501Z,40.27
2018-03-24T05:57:17.051Z,41.30
2018-03-24T05:59:44.614Z,38.87
2018-03-24T06:02:12.183Z,34.97
2018-03-24T06:04:40.546Z,40.83
2018-03-24T06:07:08.102Z,37.33
2018-03-24T06:09:35.666Z,39.03
2018-03-24T06:12:03.206Z,34.33
2018-03-24T06:14:31.526Z,36.33
2018-03-24T06:16:59.048Z,35.87
2018-03-24T06:19:26.596Z,31.53
2018-03-24T06:21:54.135Z,31.33
2018-03-24T06:24:22.452Z,33.43
2018-03-24T06:26:49.973Z,30.87
2018-03-24T06:29:17.530Z,29.97
2018-03-24T06:31:45.525Z,28.40
2018-03-24T06:34:13.072Z,31.57
2018-03-24T06:36:46.054Z,28.77
2018-03-24T06:39:14.358Z,26.47
2018-03-24T06:41:41.885Z,27.40
2018-03-24T06:44:10.201Z,28.60
2018-03-24T06:46:37.726Z,26.03
2018-03-24T06:49:06.037Z,27.47
2018-03-24T06:51:33.561Z,25.67
2018-03-24T06:54:01.869Z,27.43
2018-03-24T06:56:29.400Z,25.37
2018-03-24T06:58:57.718Z,26.33
2018-03-24T07:01:25.254Z,23.83
2018-03-24T07:03:52.822Z,26.57
2018-03-24T07:06:20.349Z,27.60
2018-03-24T07:08:47.933Z,24.37
2018-03-24T07:11:15.473Z,23.60
2018-03-24T07:13:43.027Z,23.53
2018-03-24T07:16:11.322Z,24.07
2018-03-24T07:18:38.869Z,24.30
2018-03-24T07:21:06.405Z,23.43
2018-03-24T07:23:34.702Z,23.70
2018-03-24T07:26:02.241Z,24.27
2018-03-24T07:28:30.542Z,23.53
2018-03-24T07:30:58.869Z,22.47
2018-03-24T07:33:26.406Z,23.07
2018-03-24T07:35:53.950Z,23.00
2018-03-24T07:38:21.485Z,24.93
2018-03-24T07:40:49.030Z,25.23
2018-03-24T07:43:17.329Z,24.50
2018-03-24T07:45:44.885Z,21.37
2018-03-24T07:48:12.420Z,22.37
2018-03-24T07:50:40.736Z,24.93
2018-03-24T07:53:08.260Z,22.20
2018-03-24T07:55:36.574Z,23.20
2018-03-24T07:58:04.104Z,22.47
2018-03-24T08:00:31.653Z,21.00
2018-03-24T08:02:59.949Z,22.43
2018-03-24T08:05:27.501Z,22.97
2018-03-24T08:07:55.029Z,22.77
2018-03-24T08:10:22.577Z,22.60
2018-03-24T08:12:50.106Z,23.10
2018-03-24T08:15:17.666Z,23.63
2018-03-24T08:17:45.189Z,20.43
2018-03-24T08:20:12.730Z,20.97
2018-03-24T08:22:41.029Z,20.63
2018-03-24T08:25:08.576Z,21.23
2018-03-24T08:27:36.880Z,21.97
2018-03-24T08:30:04.483Z,22.20
2018-03-24T08:32:32.039Z,21.07
2018-03-24T08:34:59.586Z,22.03
2018-03-24T08:37:27.115Z,19.93
2018-03-24T08:39:54.685Z,22.00
2018-03-24T08:42:22.216Z,21.77
2018-03-24T08:44:49.768Z,21.83
2018-03-24T08:47:17.306Z,22.33
2018-03-24T08:49:45.626Z,21.33
2018-03-24T08:52:28.655Z,21.87
2018-03-24T08:54:56.198Z,21.83
2018-03-24T08:57:23.728Z,22.33
2018-03-24T08:59:52.042Z,21.83
2018-03-24T09:02:40.013Z,20.73
2018-03-24T09:05:07.573Z,22.27
2018-03-24T09:07:35.101Z,20.73
2018-03-24T09:10:02.659Z,21.20
2018-03-24T09:12:30.199Z,21.25
2018-03-24T09:14:57.766Z,20.90
2018-03-24T09:17:25.300Z,21.98
2018-03-24T09:19:52.861Z,20.30
2018-03-24T09:22:20.419Z,20.55
2018-03-24T09:24:47.994Z,19.10
2018-03-24T09:27:15.646Z,21.17
2018-03-24T09:29:43.985Z,19.98
2018-03-24T09:32:11.527Z,20.35
2018-03-24T09:34:39.119Z,20.40
2018-03-24T09:37:07.418Z,20.75
2018-03-24T09:39:35.118Z,20.83
2018-03-24T09:42:02.654Z,21.67
2018-03-24T09:44:31.150Z,20.58
2018-03-24T09:46:58.686Z,20.45
2018-03-24T09:49:26.224Z,20.13
2018-03-24T09:51:54.548Z,18.07
2018-03-24T09:54:22.072Z,18.60
2018-03-24T09:56:49.630Z,19.03
2018-03-24T09:59:17.202Z,20.23
2018-03-24T10:01:45.501Z,17.77
2018-03-24T10:04:13.082Z,17.53
2018-03-24T10:06:40.629Z,16.27
2018-03-24T10:09:08.204Z,16.13
2018-03-24T10:11:35.801Z,17.80
2018-03-24T10:14:03.338Z,13.60
2018-03-24T10:16:31.676Z,16.47
2018-03-24T10:18:59.218Z,17.07
2018-03-24T10:24:49.511Z,14.43
2018-03-24T10:27:17.029Z,14.53
2018-03-24T10:29:44.561Z,14.27
2018-03-24T10:32:12.110Z,13.87
2018-03-24T10:34:39.641Z,14.53
2018-03-24T10:37:07.191Z,13.50
2018-03-24T10:39:34.727Z,13.97
2018-03-24T10:42:03.044Z,13.93
2018-03-24T10:44:30.581Z,13.60
2018-03-24T10:46:58.129Z,13.47
2018-03-24T10:49:26.422Z,12.70
2018-03-24T10:51:53.989Z,12.20
2018-03-24T10:54:21.525Z,12.30
2018-03-24T10:56:49.836Z,11.07
2018-03-24T10:59:17.369Z,12.40
2018-03-24T11:01:44.921Z,11.57
2018-03-24T11:04:13.257Z,12.30
2018-03-24T11:06:40.781Z,11.10
2018-03-24T11:09:08.318Z,10.63
2018-03-24T11:11:35.866Z,10.90
2018-03-24T11:14:04.166Z,10.73
2018-03-24T11:16:31.737Z,10.77
2018-03-24T11:18:59.262Z,10.93
2018-03-24T11:21:27.826Z,11.20
2018-03-24T11:23:55.361Z,10.80
2018-03-24T11:26:23.655Z,11.60
2018-03-24T11:28:51.300Z,11.17
2018-03-24T11:31:19.675Z,11.37
2018-03-24T11:33:47.216Z,11.70
2018-03-24T11:36:14.802Z,11.73
2018-03-24T11:38:42.358Z,11.07
2018-03-24T11:41:09.949Z,11.37
2018-03-24T11:43:38.277Z,11.87
2018-03-24T11:46:05.851Z,11.80
2018-03-24T11:48:33.430Z,11.80
2018-03-24T11:51:01.783Z,11.17
2018-03-24T11:53:41.154Z,11.00
2018-03-24T11:56:09.523Z,11.47
2018-03-24T11:58:37.076Z,11.70
2018-03-24T12:01:04.629Z,11.77
2018-03-24T12:03:32.214Z,11.97
2018-03-24T12:05:59.776Z,13.93
2018-03-24T12:08:28.130Z,12.10
2018-03-24T12:10:56.452Z,12.63
2018-03-24T12:13:24.027Z,13.30
2018-03-24T12:15:51.585Z,12.00
2018-03-24T12:18:19.187Z,13.00
2018-03-24T12:20:46.734Z,13.53
2018-03-24T12:23:14.364Z,12.87
2018-03-24T12:25:41.931Z,12.40
2018-03-24T12:28:09.518Z,11.97
2018-03-24T12:30:37.053Z,12.43
2018-03-24T12:33:04.618Z,13.17
2018-03-24T12:35:32.153Z,11.97
2018-03-24T12:37:59.715Z,13.57
2018-03-24T12:40:27.239Z,14.03
2018-03-24T12:42:54.812Z,13.93
2018-03-24T12:45:22.373Z,14.03
2018-03-24T12:47:50.145Z,13.23
2018-03-24T12:50:17.673Z,14.90
2018-03-24T12:52:45.274Z,13.20
2018-03-24T12:55:12.822Z,13.13
2018-03-24T12:57:40.387Z,13.63
2018-03-24T13:00:07.912Z,13.43
2018-03-24T13:02:35.464Z,13.30
2018-03-24T13:05:03.774Z,13.10
2018-03-24T13:07:31.331Z,12.00
2018-03-24T13:09:58.874Z,13.23
2018-03-24T13:12:26.430Z,14.10
2018-03-24T13:14:53.977Z,13.00
2018-03-24T13:17:22.300Z,12.40
2018-03-24T13:19:49.843Z,13.67
2018-03-24T13:22:17.416Z,13.83
2018-03-24T13:24:44.950Z,13.23
2018-03-24T13:27:12.501Z,13.57
2018-03-24T13:29:40.046Z,12.50
2018-03-24T13:32:08.365Z,12.33
2018-03-24T13:34:35.902Z,13.55
2018-03-24T13:37:03.457Z,13.35
2018-03-24T13:39:31.047Z,13.60
2018-03-24T13:41:58.617Z,14.32
2018-03-24T13:44:26.190Z,12.77
2018-03-24T13:46:53.790Z,14.52
2018-03-24T13:49:21.336Z,12.68
2018-03-24T13:51:48.903Z,12.98
2018-03-24T13:54:16.488Z,16.37
2018-03-24T13:56:44.818Z,13.80
2018-03-24T13:59:13.190Z,13.73
2018-03-24T14:01:41.502Z,16.43
2018-03-24T14:04:09.071Z,13.90
2018-03-24T14:06:36.639Z,13.77
2018-03-24T14:09:04.218Z,12.53
2018-03-24T14:11:31.775Z,22.40
2018-03-24T14:13:59.335Z,13.40
2018-03-24T14:16:26.893Z,13.07
2018-03-24T14:18:54.473Z,13.30
2018-03-24T14:21:22.013Z,11.80
2018-03-24T14:23:49.635Z,12.13
2018-03-24T14:26:17.149Z,12.60
2018-03-24T14:28:45.485Z,12.43
2018-03-24T14:31:13.037Z,12.97
2018-03-24T14:33:40.601Z,12.60
2018-03-24T14:36:08.149Z,12.17
2018-03-24T14:38:35.765Z,12.03
2018-03-24T14:41:03.301Z,12.37
2018-03-24T14:43:30.867Z,11.73
2018-03-24T14:45:58.431Z,11.33
2018-03-24T14:48:26.236Z,11.83
2018-03-24T14:50:53.802Z,11.70
2018-03-24T14:53:21.394Z,12.40
2018-03-24T14:55:49.016Z,11.23
2018-03-24T14:58:16.586Z,11.80
2018-03-24T15:00:44.168Z,11.90
2018-03-24T15:03:11.807Z,11.33
2018-03-24T15:05:39.358Z,10.30
2018-03-24T15:08:06.959Z,9.83
2018-03-24T15:10:34.517Z,11.00
2018-03-24T15:13:02.125Z,11.17
2018-03-24T15:15:29.758Z,10.87
2018-03-24T15:17:58.147Z,11.90
2018-03-24T15:20:25.814Z,10.93
2018-03-24T15:22:53.413Z,11.57
2018-03-24T15:25:21.516Z,10.57
2018-03-24T15:27:49.263Z,11.50
2018-03-24T15:30:28.630Z,11.40
2018-03-24T15:33:08.750Z,10.53
2018-03-24T15:35:37.370Z,11.97
2018-03-24T15:38:05.803Z,11.00
2018-03-24T15:40:33.386Z,10.87
2018-03-24T15:43:01.198Z,9.83
2018-03-24T15:45:28.947Z,10.67
2018-03-24T15:47:56.526Z,10.90
2018-03-24T15:50:24.181Z,9.93
2018-03-24T15:52:51.838Z,10.70
2018-03-24T15:55:19.432Z,11.50
2018-03-24T15:57:47.021Z,10.50
2018-03-24T16:00:14.600Z,10.90
2018-03-24T16:02:42.962Z,12.10
2018-03-24T16:05:10.542Z,10.97
2018-03-24T16:07:39.001Z,10.87
2018-03-24T16:10:06.622Z,11.07
2018-03-24T16:12:34.247Z,9.97
2018-03-24T16:15:01.845Z,10.93
2018-03-24T16:17:29.537Z,10.93
2018-03-24T16:19:57.171Z,11.73
2018-03-24T16:22:24.782Z,10.93
2018-03-24T16:24:52.426Z,10.70
2018-03-24T16:27:19.959Z,11.13
2018-03-24T16:29:47.527Z,12.50
2018-03-24T16:32:15.074Z,11.00
2018-03-24T16:34:42.622Z,11.63
2018-03-24T16:37:10.150Z,12.30
2018-03-24T16:39:37.758Z,12.30
2018-03-24T16:42:05.321Z,12.30
2018-03-24T16:44:32.885Z,13.67
2018-03-24T16:47:00.425Z,12.20
2018-03-24T16:49:27.978Z,11.00
2018-03-24T16:51:55.509Z,11.33
2018-03-24T16:54:23.053Z,12.73
2018-03-24T16:56:51.341Z,12.07
2018-03-24T16:59:18.898Z,13.40
2018-03-24T17:01:46.430Z,13.33
2018-03-24T17:04:14.757Z,12.37
2018-03-24T17:06:42.289Z,13.07
2018-03-24T17:09:09.841Z,11.03
2018-03-24T17:11:37.432Z,10.27
2018-03-24T17:14:04.953Z,12.37
2018-03-24T17:16:33.270Z,11.17
2018-03-24T17:19:00.831Z,10.83
2018-03-24T17:21:28.356Z,9.70
2018-03-24T17:23:55.922Z,9.47
2018-03-24T17:26:23.479Z,10.07
2018-03-24T17:28:51.847Z,9.40
2018-03-24T17:31:19.382Z,8.67
2018-03-24T17:33:46.980Z,8.73
2018-03-24T17:36:14.573Z,8.37
2018-03-24T17:38:42.158Z,8.40
2018-03-24T17:41:10.503Z,8.47
2018-03-24T17:43:38.050Z,7.87
2018-03-24T17:46:05.640Z,8.20
2018-03-24T17:48:33.208Z,9.13
2018-03-24T17:51:01.562Z,10.20
2018-03-24T17:53:29.131Z,10.47
2018-03-24T17:55:56.690Z,10.97
2018-03-24T17:58:24.238Z,10.93
2018-03-24T18:00:51.828Z,11.40
2018-03-24T18:03:20.143Z,10.77
2018-03-24T18:05:47.709Z,10.20
2018-03-24T18:08:15.268Z,10.73
2018-03-24T18:10:42.855Z,10.80
2018-03-24T18:13:10.413Z,10.47
2018-03-24T18:15:38.015Z,11.23
2018-03-24T18:18:05.804Z,12.20
2018-03-24T18:20:33.498Z,11.10
2018-03-24T18:23:01.001Z,12.40
2018-03-24T18:25:29.337Z,12.43
2018-03-24T18:27:56.862Z,13.73
2018-03-24T18:30:24.440Z,16.40
2018-03-24T18:32:51.969Z,14.30
2018-03-24T18:35:19.522Z,15.83
2018-03-24T18:37:47.050Z,16.37
2018-03-24T18:40:14.596Z,15.07
2018-03-24T18:42:42.125Z,16.10
2018-03-24T18:45:09.673Z,19.37
2018-03-24T18:47:37.221Z,20.33
2018-03-24T18:50:04.792Z,16.87
2018-03-24T18:52:32.340Z,13.13
2018-03-24T18:54:59.919Z,13.23
2018-03-24T18:57:27.487Z,9.73
2018-03-24T18:59:55.069Z,9.80
2018-03-24T19:02:22.617Z,10.50
2018-03-24T19:04:50.202Z,12.83
2018-03-24T19:07:18.506Z,14.30
2018-03-24T19:09:46.053Z,12.47
2018-03-24T19:12:14.357Z,14.50
2018-03-24T19:14:41.930Z,15.17
2018-03-24T19:17:09.478Z,11.60
2018-03-24T19:19:37.085Z,10.70
2018-03-24T19:22:05.394Z,15.30
2018-03-24T19:24:32.971Z,14.83
2018-03-24T19:27:01.280Z,12.63
2018-03-24T19:29:28.876Z,12.87
2018-03-24T19:31:57.212Z,11.53
2018-03-24T19:34:24.757Z,11.83
2018-03-24T19:36:52.325Z,11.10
2018-03-24T19:39:19.863Z,10.83
2018-03-24T19:41:47.415Z,10.17
2018-03-24T19:44:14.965Z,10.77
2018-03-24T19:46:42.547Z,10.53
2018-03-24T19:49:10.100Z,10.67
2018-03-24T19:51:37.686Z,9.60
2018-03-24T19:54:05.219Z,9.77
2018-03-24T19:56:32.781Z,9.97
2018-03-24T19:59:00.341Z,10.47
2018-03-24T20:01:27.951Z,10.67
2018-03-24T20:03:55.524Z,10.87
2018-03-24T20:06:23.116Z,9.03
2018-03-24T20:08:50.696Z,9.23
2018-03-24T20:11:18.321Z,11.33
2018-03-24T20:13:45.903Z,10.17
2018-03-24T20:16:13.487Z,10.57
2018-03-24T20:18:41.813Z,9.93
2018-03-24T20:21:09.403Z,10.47
2018-03-24T20:23:36.933Z,10.77
2018-03-24T20:26:04.510Z,11.10
2018-03-24T20:28:32.083Z,12.33
2018-03-24T20:30:59.672Z,10.93
2018-03-24T20:33:27.988Z,11.50
2018-03-24T20:35:55.583Z,10.93
2018-03-24T20:38:23.202Z,12.87
2018-03-24T20:40:50.774Z,12.40
2018-03-24T20:43:18.349Z,24.53
2018-03-24T20:45:45.909Z,20.67
2018-03-24T20:48:13.489Z,18.90
2018-03-24T20:50:41.042Z,16.83
2018-03-24T20:53:08.589Z,14.47
2018-03-24T20:55:36.136Z,15.43
2018-03-24T20:58:03.718Z,15.07
2018-03-24T21:00:31.274Z,13.67
2018-03-24T21:02:58.813Z,12.50
2018-03-24T21:05:26.361Z,12.87
2018-03-24T21:07:53.932Z,11.90
2018-03-24T21:10:21.485Z,15.30
2018-03-24T21:12:49.027Z,14.37
2018-03-24T21:15:16.594Z,13.87
2018-03-24T21:17:44.147Z,12.93
2018-03-24T21:20:11.694Z,11.33
2018-03-24T21:22:39.243Z,10.27
2018-03-24T21:25:06.794Z,11.00
2018-03-24T21:27:35.112Z,11.50
2018-03-24T21:30:02.665Z,13.13
2018-03-24T21:32:30.233Z,13.67
2018-03-24T21:34:57.779Z,12.73
2018-03-24T21:37:25.334Z,13.13
2018-03-24T21:39:52.874Z,12.87
2018-03-24T21:42:20.451Z,13.43
2018-03-24T21:44:48.002Z,12.57
2018-03-24T21:47:15.627Z,12.20
2018-03-24T21:49:43.956Z,13.47
2018-03-24T21:52:11.540Z,15.00
2018-03-24T21:54:39.094Z,15.23
2018-03-24T21:57:06.649Z,17.93
2018-03-24T21:59:34.183Z,15.77
2018-03-24T22:02:01.737Z,13.50
2018-03-24T22:04:29.278Z,17.40
2018-03-24T22:06:56.843Z,19.90
2018-03-24T22:09:24.380Z,21.67
2018-03-24T22:11:52.698Z,21.93
2018-03-24T22:14:20.229Z,21.67
2018-03-24T22:16:48.546Z,20.47
2018-03-24T22:19:16.093Z,19.03
2018-03-24T22:21:43.658Z,16.33
2018-03-24T22:24:11.196Z,19.97
2018-03-24T22:26:38.749Z,20.17
2018-03-24T22:29:06.302Z,18.10
2018-03-24T22:31:33.861Z,17.20
2018-03-24T22:34:01.398Z,18.57
2018-03-24T22:36:29.718Z,19.97
2018-03-24T22:38:58.022Z,19.27
2018-03-24T22:41:25.577Z,17.63
2018-03-24T22:43:53.113Z,17.97
2018-03-24T22:46:20.675Z,24.27
2018-03-24T22:48:48.209Z,20.80
2018-03-24T22:51:15.768Z,20.17
2018-03-24T22:53:43.309Z,16.10
2018-03-24T22:56:11.604Z,14.27
2018-03-24T22:58:39.185Z,16.03
2018-03-24T23:01:06.721Z,16.03
2018-03-24T23:03:34.268Z,17.27
2018-03-24T23:06:02.571Z,16.30
2018-03-24T23:08:30.133Z,14.90
2018-03-24T23:10:57.678Z,17.27
2018-03-24T23:13:25.233Z,17.47
2018-03-24T23:15:52.778Z,17.07
2018-03-24T23:18:20.380Z,15.73
2018-03-24T23:20:47.922Z,17.23
2018-03-24T23:23:26.804Z,17.03
2018-03-24T23:25:55.100Z,15.70
2018-03-24T23:28:22.721Z,16.27
2018-03-24T23:30:50.210Z,17.17
2018-03-24T23:33:17.763Z,17.90
2018-03-24T23:35:46.055Z,15.63
2018-03-24T23:38:13.625Z,15.67
2018-03-24T23:40:41.161Z,15.70
2018-03-24T23:43:09.477Z,15.97
2018-03-24T23:45:37.046Z,18.03
2018-03-24T23:48:04.635Z,17.87
2018-03-24T23:50:32.209Z,16.90
2018-03-24T23:53:00.526Z,16.00
2018-03-24T23:55:28.057Z,15.73
2018-03-24T23:57:56.383Z,15.37
